Time;durP1;ratioP1;P1;durP2;ratioP2;P2;SDS_P1;SDS_P2;PMS_P1;PMS_P2;Temp;Humidity;BMP_temperature;BMP_pressure;BME280_temperature;BME280_humidity;BME280_pressure;Samples;Min_cycle;Max_cycle;Signal;HPM_P1;HPM_P2
2022/09/24 00:01:20;;;;;;;17.27;14.55;;;;;;;-142.57;100.00;68379.81;5044227;28;20467;-81
2022/09/24 00:03:52;;;;;;;19.10;12.93;;;;;;;-142.57;100.00;68379.81;5050060;28;20468;-82
2022/09/24 00:06:18;;;;;;;16.35;11.77;;;;;;;-142.57;100.00;68379.81;5052828;28;20063;-82
2022/09/24 00:08:48;;;;;;;14.13;12.48;;;;;;;-142.57;100.00;68379.81;5068331;28;20094;-82
2022/09/24 00:11:14;;;;;;;14.98;13.30;;;;;;;-142.57;100.00;68379.81;5036826;28;20025;-82
2022/09/24 00:13:40;;;;;;;15.32;12.98;;;;;;;-142.57;100.00;68379.81;5053990;28;20502;-82
2022/09/24 00:16:08;;;;;;;16.20;13.15;;;;;;;-142.57;100.00;68379.81;5038916;28;20102;-82
2022/09/24 00:18:35;;;;;;;17.20;13.68;;;;;;;-142.57;100.00;68379.81;5035987;28;20056;-82
2022/09/24 00:21:00;;;;;;;18.48;14.07;;;;;;;-142.57;100.00;68379.81;5040720;28;20025;-81
2022/09/24 00:23:26;;;;;;;16.85;12.27;;;;;;;-142.57;100.00;68379.81;5033857;28;20112;-81
2022/09/24 00:28:36;;;;;;;15.65;12.73;;;;;;;-142.57;100.00;68379.81;5051530;28;20079;-79
2022/09/24 00:31:05;;;;;;;16.60;13.77;;;;;;;-142.57;100.00;68379.81;5034157;28;20430;-79
2022/09/24 00:33:33;;;;;;;21.92;12.63;;;;;;;-142.57;100.00;68379.81;5036322;28;20047;-79
2022/09/24 00:36:01;;;;;;;17.92;12.75;;;;;;;-142.57;100.00;68379.81;5053196;28;20079;-79
2022/09/24 00:38:31;;;;;;;18.85;14.45;;;;;;;-142.57;100.00;68379.81;5047695;28;20478;-79
2022/09/24 00:40:56;;;;;;;16.58;13.05;;;;;;;-142.57;100.00;68379.81;5033057;28;20025;-79
2022/09/24 00:43:26;;;;;;;14.13;12.52;;;;;;;-142.57;100.00;68379.81;5044743;28;20028;-80
2022/09/24 00:45:55;;;;;;;23.35;15.27;;;;;;;-142.57;100.00;68379.81;5050758;28;20036;-79
2022/09/24 00:48:20;;;;;;;16.65;14.27;;;;;;;-142.57;100.00;68379.81;5024129;28;20036;-80
2022/09/24 00:50:46;;;;;;;16.13;14.32;;;;;;;-142.57;100.00;68379.81;5030401;28;20037;-79
2022/09/24 00:53:21;;;;;;;16.58;13.25;;;;;;;-142.57;100.00;68379.81;5069582;28;20024;-80
2022/09/24 00:55:50;;;;;;;18.83;13.98;;;;;;;-142.57;100.00;68379.81;5066910;28;20027;-80
2022/09/24 00:58:16;;;;;;;17.65;14.98;;;;;;;-142.57;100.00;68379.81;5036090;28;20437;-80
2022/09/24 01:00:44;;;;;;;15.57;13.77;;;;;;;-142.57;100.00;68379.81;5052693;28;20028;-81
2022/09/24 01:03:18;;;;;;;16.15;14.02;;;;;;;-142.57;100.00;68379.81;5051837;28;20032;-81
2022/09/24 01:05:44;;;;;;;19.08;13.73;;;;;;;-142.57;100.00;68379.81;5052619;28;20041;-80
2022/09/24 01:08:12;;;;;;;15.93;14.23;;;;;;;-142.57;100.00;68379.81;5069226;28;20079;-81
2022/09/24 01:10:50;;;;;;;20.23;14.77;;;;;;;-142.57;100.00;68379.81;5068819;28;20116;-81
2022/09/24 01:13:28;;;;;;;21.00;16.73;;;;;;;-142.57;100.00;68379.81;5084889;28;20052;-81
2022/09/24 01:16:06;;;;;;;21.58;17.05;;;;;;;-142.57;100.00;68379.81;5053800;28;20112;-80
2022/09/24 01:18:59;;;;;;;20.38;15.70;;;;;;;-142.57;100.00;68379.81;5051842;28;20043;-80
2022/09/24 01:21:54;;;;;;;18.63;16.52;;;;;;;-142.57;100.00;68379.81;5053440;28;20553;-80
2022/09/24 01:24:51;;;;;;;19.10;16.23;;;;;;;-142.57;100.00;68379.81;5062297;28;20032;-80
2022/09/24 01:27:24;;;;;;;19.48;16.40;;;;;;;-142.57;100.00;68379.81;5062414;28;20016;-81
2022/09/24 01:30:06;;;;;;;22.07;17.20;;;;;;;-142.57;100.00;68379.81;5043996;28;20537;-80
2022/09/24 01:32:51;;;;;;;16.52;14.23;;;;;;;-142.57;100.00;68379.81;5042411;28;20020;-80
2022/09/24 01:35:41;;;;;;;27.70;17.38;;;;;;;-142.57;100.00;68379.81;5083236;28;20459;-80
2022/09/24 01:38:16;;;;;;;25.55;16.88;;;;;;;-142.57;100.00;68379.81;5066325;28;20032;-80
2022/09/24 01:40:42;;;;;;;19.52;17.52;;;;;;;-142.57;100.00;68379.81;5026197;28;20029;-80
2022/09/24 01:43:08;;;;;;;24.15;18.35;;;;;;;-142.57;100.00;68379.81;5066569;28;20017;-80
2022/09/24 01:45:34;;;;;;;19.65;16.77;;;;;;;-142.57;100.00;68379.81;5031182;28;20082;-80
2022/09/24 01:48:00;;;;;;;25.17;20.05;;;;;;;-142.57;100.00;68379.81;5040889;28;20130;-80
2022/09/24 01:50:28;;;;;;;27.02;20.58;;;;;;;-142.57;100.00;68379.81;5041137;28;20061;-82
2022/09/24 01:53:02;;;;;;;29.98;19.70;;;;;;;-142.57;100.00;68379.81;5034164;28;20017;-82
2022/09/24 01:55:31;;;;;;;30.75;21.35;;;;;;;-142.57;100.00;68379.81;5068945;28;20073;-82
2022/09/24 01:58:04;;;;;;;22.45;19.98;;;;;;;-142.57;100.00;68379.81;5051616;28;20036;-82
2022/09/24 02:00:30;;;;;;;25.02;20.95;;;;;;;-142.57;100.00;68379.81;5029858;28;20017;-81
2022/09/24 02:03:04;;;;;;;28.27;22.42;;;;;;;-142.57;100.00;68379.81;5062467;28;20040;-81
2022/09/24 02:05:57;;;;;;;25.48;22.75;;;;;;;-142.57;100.00;68379.81;5031000;28;20036;-80
2022/09/24 02:08:27;;;;;;;23.58;21.17;;;;;;;-142.57;100.00;68379.81;5033301;28;20025;-80
2022/09/24 02:11:01;;;;;;;26.02;21.05;;;;;;;-142.57;100.00;68379.81;5044234;28;20066;-80
2022/09/24 02:13:35;;;;;;;25.10;20.88;;;;;;;-142.57;100.00;68379.81;5045324;28;20021;-80
2022/09/24 02:16:04;;;;;;;25.25;21.50;;;;;;;-142.57;100.00;68379.81;5047057;28;20037;-78
2022/09/24 02:18:33;;;;;;;25.90;22.13;;;;;;;-142.57;100.00;68379.81;5029815;28;20460;-78
2022/09/24 02:21:02;;;;;;;23.95;20.40;;;;;;;-142.57;100.00;68379.81;5040140;28;20036;-78
2022/09/24 02:23:28;;;;;;;22.73;19.90;;;;;;;-142.57;100.00;68379.81;5027786;28;20535;-78
2022/09/24 02:26:02;;;;;;;24.58;19.40;;;;;;;-142.57;100.00;68379.81;5047853;28;20064;-78
2022/09/24 02:28:29;;;;;;;21.75;19.52;;;;;;;-142.57;100.00;68379.81;5034087;28;20486;-78
2022/09/24 02:31:07;;;;;;;23.83;20.48;;;;;;;-142.57;100.00;68379.81;5067693;28;20062;-78
2022/09/24 02:36:18;;;;;;;20.13;18.10;;;;;;;-142.57;100.00;68379.81;4992090;28;1680565;-78
2022/09/24 02:38:45;;;;;;;22.40;19.75;;;;;;;-142.57;100.00;68379.81;5051518;28;20028;-77
2022/09/24 02:41:12;;;;;;;22.75;18.85;;;;;;;-142.57;100.00;68379.81;5051775;28;20096;-78
2022/09/24 02:43:39;;;;;;;30.08;21.92;;;;;;;-142.57;100.00;68379.81;5032298;28;20494;-78
2022/09/24 02:46:08;;;;;;;26.13;21.73;;;;;;;-142.57;100.00;68379.81;5048517;28;20047;-76
2022/09/24 02:48:37;;;;;;;32.60;21.42;;;;;;;-142.57;100.00;68379.81;5021989;28;20383;-78
2022/09/24 02:51:03;;;;;;;24.35;20.98;;;;;;;-142.57;100.00;68379.81;5050076;28;20032;-80
2022/09/24 02:53:29;;;;;;;32.55;22.90;;;;;;;-142.57;100.00;68379.81;5066982;28;20029;-80
2022/09/24 02:55:55;;;;;;;32.67;24.02;;;;;;;-142.57;100.00;68379.81;5052243;28;20025;-79
2022/09/24 02:58:20;;;;;;;30.70;25.27;;;;;;;-142.57;100.00;68379.81;5063235;28;20420;-79
2022/09/24 03:00:46;;;;;;;27.33;22.95;;;;;;;-142.57;100.00;68379.81;5037940;28;20029;-79
2022/09/24 03:03:11;;;;;;;29.67;23.55;;;;;;;-142.57;100.00;68379.81;5047203;28;20112;-79
2022/09/24 03:05:36;;;;;;;33.95;26.00;;;;;;;-142.57;100.00;68379.81;5066851;28;20036;-79
2022/09/24 03:08:02;;;;;;;36.65;26.95;;;;;;;-142.57;100.00;68379.81;5030767;28;20017;-79
2022/09/24 03:10:27;;;;;;;30.20;26.63;;;;;;;-142.57;100.00;68379.81;5037292;28;20098;-80
2022/09/24 03:12:53;;;;;;;31.73;26.13;;;;;;;-142.57;100.00;68379.81;5033809;28;20025;-79
2022/09/24 03:15:18;;;;;;;30.73;27.65;;;;;;;-142.57;100.00;68379.81;5051257;28;20048;-81
2022/09/24 03:17:44;;;;;;;29.92;26.73;;;;;;;-142.57;100.00;68379.81;5050773;28;20028;-82
2022/09/24 03:20:09;;;;;;;34.70;27.48;;;;;;;-142.57;100.00;68379.81;5037890;28;20021;-81
2022/09/24 03:22:34;;;;;;;30.85;26.65;;;;;;;-142.57;100.00;68379.81;5031074;28;20104;-82
2022/09/24 03:25:01;;;;;;;31.27;25.55;;;;;;;-142.57;100.00;68379.81;5051316;28;20115;-82
2022/09/24 03:27:26;;;;;;;28.70;25.60;;;;;;;-142.57;100.00;68379.81;5051618;28;20023;-82
2022/09/24 03:32:35;;;;;;;33.45;26.52;;;;;;;-142.57;100.00;68379.81;5052512;28;20155;-82
2022/09/24 03:35:01;;;;;;;33.17;27.00;;;;;;;-142.57;100.00;68379.81;5050290;28;20512;-81
2022/09/24 03:37:26;;;;;;;29.33;26.42;;;;;;;-142.57;100.00;68379.81;5070038;28;20054;-82
2022/09/24 03:39:52;;;;;;;31.02;24.65;;;;;;;-142.57;100.00;68379.81;5055129;28;20028;-81
2022/09/24 03:42:17;;;;;;;31.15;26.05;;;;;;;-142.57;100.00;68379.81;5054727;28;20051;-82
2022/09/24 03:44:43;;;;;;;31.23;25.50;;;;;;;-142.57;100.00;68379.81;5071074;28;20029;-80
2022/09/24 03:47:08;;;;;;;32.00;25.50;;;;;;;-142.57;100.00;68379.81;5043582;28;20372;-82
2022/09/24 03:49:34;;;;;;;28.42;23.88;;;;;;;-142.57;100.00;68379.81;5039178;28;20479;-81
2022/09/24 03:51:59;;;;;;;30.42;25.63;;;;;;;-142.57;100.00;68379.81;5070860;28;20146;-79
2022/09/24 03:54:25;;;;;;;31.17;24.73;;;;;;;-142.57;100.00;68379.81;5036149;28;20467;-80
2022/09/24 03:56:50;;;;;;;29.13;25.27;;;;;;;-142.57;100.00;68379.81;5038633;28;20029;-80
2022/09/24 03:59:15;;;;;;;29.80;25.75;;;;;;;-142.57;100.00;68379.81;5052727;28;20025;-80
2022/09/24 04:01:41;;;;;;;28.50;24.27;;;;;;;-142.57;100.00;68379.81;5053851;28;20419;-80
2022/09/24 04:04:06;;;;;;;32.58;24.60;;;;;;;-142.57;100.00;68379.81;5085709;28;20033;-80
2022/09/24 04:06:31;;;;;;;25.70;22.88;;;;;;;-142.57;100.00;68379.81;5053702;28;20108;-79
2022/09/24 04:08:57;;;;;;;31.02;24.80;;;;;;;-142.57;100.00;68379.81;5033925;28;20426;-80
2022/09/24 04:11:23;;;;;;;35.17;25.00;;;;;;;-142.57;100.00;68379.81;5058919;28;20021;-80
2022/09/24 04:13:50;;;;;;;29.95;24.38;;;;;;;-142.57;100.00;68379.81;5047023;28;20029;-79
2022/09/24 04:16:16;;;;;;;34.80;24.88;;;;;;;-142.57;100.00;68379.81;5080623;28;20463;-80
2022/09/24 04:18:41;;;;;;;28.67;24.95;;;;;;;-142.57;100.00;68379.81;5054594;28;20036;-80
2022/09/24 04:21:07;;;;;;;31.17;24.98;;;;;;;-142.57;100.00;68379.81;5046549;28;20028;-78
2022/09/24 04:23:32;;;;;;;28.67;24.92;;;;;;;-142.57;100.00;68379.81;5036604;28;20025;-82
2022/09/24 04:26:00;;;;;;;31.65;26.67;;;;;;;-142.57;100.00;68379.81;5063793;28;20029;-80
2022/09/24 04:28:26;;;;;;;34.67;26.23;;;;;;;-142.57;100.00;68379.81;5052962;28;20028;-78
2022/09/24 04:30:52;;;;;;;35.17;27.10;;;;;;;-142.57;100.00;68379.81;5043260;28;20455;-80
2022/09/24 04:33:17;;;;;;;32.53;25.35;;;;;;;-142.57;100.00;68379.81;5031918;28;20087;-80
2022/09/24 04:35:44;;;;;;;31.48;26.42;;;;;;;-142.57;100.00;68379.81;5033111;28;20033;-80
2022/09/24 04:38:10;;;;;;;30.17;25.30;;;;;;;-142.57;100.00;68379.81;5049259;28;20052;-80
2022/09/24 04:40:35;;;;;;;32.63;25.63;;;;;;;-142.57;100.00;68379.81;5052905;28;20060;-80
2022/09/24 04:43:01;;;;;;;33.38;24.55;;;;;;;-142.57;100.00;68379.81;5067876;28;20116;-82
2022/09/24 04:45:26;;;;;;;31.42;26.25;;;;;;;-142.57;100.00;68379.81;5032441;28;20032;-82
2022/09/24 04:47:54;;;;;;;34.58;25.95;;;;;;;-142.57;100.00;68379.81;5034519;28;20054;-82
2022/09/24 04:50:20;;;;;;;30.95;24.52;;;;;;;-142.57;100.00;68379.81;5067620;28;20021;-82
2022/09/24 04:52:46;;;;;;;29.02;25.48;;;;;;;-142.57;100.00;68379.81;5053005;28;20033;-77
2022/09/24 04:55:12;;;;;;;31.92;26.73;;;;;;;-142.57;100.00;68379.81;5068412;28;20059;-80
2022/09/24 04:57:37;;;;;;;27.38;23.92;;;;;;;-142.57;100.00;68379.81;5067635;28;20024;-78
2022/09/24 05:00:05;;;;;;;28.70;25.38;;;;;;;-142.57;100.00;68379.81;5048087;28;20036;-77
2022/09/24 05:02:30;;;;;;;28.15;25.20;;;;;;;-142.57;100.00;68379.81;5053539;28;20143;-77
2022/09/24 05:04:56;;;;;;;34.60;26.77;;;;;;;-142.57;100.00;68379.81;5036745;28;20017;-77
2022/09/24 05:07:21;;;;;;;31.25;26.08;;;;;;;-142.57;100.00;68379.81;5035857;28;20024;-77
2022/09/24 05:09:47;;;;;;;35.10;28.25;;;;;;;-142.57;100.00;68379.81;5085682;28;20479;-77
2022/09/24 05:12:13;;;;;;;32.80;26.00;;;;;;;-142.57;100.00;68379.81;5026261;28;20387;-77
2022/09/24 05:14:38;;;;;;;32.20;27.85;;;;;;;-142.57;100.00;68379.81;5048246;28;20036;-78
2022/09/24 05:17:04;;;;;;;30.05;26.15;;;;;;;-142.57;100.00;68379.81;5068987;28;20025;-78
2022/09/24 05:19:29;;;;;;;34.33;26.60;;;;;;;-142.57;100.00;68379.81;5034959;28;20035;-77
2022/09/24 05:21:54;;;;;;;33.92;27.55;;;;;;;-142.57;100.00;68379.81;5047192;28;20021;-78
2022/09/24 05:24:20;;;;;;;32.33;27.15;;;;;;;-142.57;100.00;68379.81;5063244;28;20382;-79
2022/09/24 05:29:29;;;;;;;31.73;25.90;;;;;;;-142.57;100.00;68379.81;5059747;28;20513;-80
2022/09/24 05:31:55;;;;;;;35.80;27.55;;;;;;;-142.57;100.00;68379.81;5066207;28;20048;-80
2022/09/24 05:34:23;;;;;;;27.90;25.02;;;;;;;-142.57;100.00;68379.81;5064323;28;20028;-79
2022/09/24 05:36:49;;;;;;;40.85;27.35;;;;;;;-142.57;100.00;68379.81;5059353;28;20538;-79
2022/09/24 05:39:14;;;;;;;31.13;27.58;;;;;;;-142.57;100.00;68379.81;5059148;28;20140;-80
2022/09/24 05:41:40;;;;;;;30.23;26.35;;;;;;;-142.57;100.00;68379.81;5059840;28;20479;-78
2022/09/24 05:44:05;;;;;;;34.75;27.35;;;;;;;-142.57;100.00;68379.81;5059057;28;20016;-78
2022/09/24 05:46:31;;;;;;;30.70;27.40;;;;;;;-142.57;100.00;68379.81;5043229;28;20032;-78
2022/09/24 05:48:57;;;;;;;30.73;27.02;;;;;;;-142.57;100.00;68379.81;5064833;28;20859;-77
2022/09/24 05:51:23;;;;;;;34.50;27.75;;;;;;;-142.57;100.00;68379.81;5057675;28;20032;-80
2022/09/24 05:53:49;;;;;;;30.02;26.85;;;;;;;-142.57;100.00;68379.81;5052895;28;20103;-79
2022/09/24 05:56:15;;;;;;;29.23;26.10;;;;;;;-142.57;100.00;68379.81;5035011;28;20024;-80
2022/09/24 05:58:40;;;;;;;30.25;26.08;;;;;;;-142.57;100.00;68379.81;5035037;28;20017;-80
2022/09/24 06:01:05;;;;;;;29.67;26.45;;;;;;;-142.57;100.00;68379.81;5032412;28;20025;-78
2022/09/24 06:03:31;;;;;;;28.90;25.85;;;;;;;-142.57;100.00;68379.81;5060109;28;20478;-77
2022/09/24 06:06:00;;;;;;;33.42;26.75;;;;;;;-142.57;100.00;68379.81;5058483;28;20044;-77
2022/09/24 06:08:27;;;;;;;35.17;28.02;;;;;;;-142.57;100.00;68379.81;5046625;28;20033;-77
2022/09/24 06:10:57;;;;;;;30.20;26.88;;;;;;;-142.57;100.00;68379.81;5032868;28;20025;-77
2022/09/24 06:13:23;;;;;;;33.28;27.38;;;;;;;-142.57;100.00;68379.81;5037171;28;20036;-78
2022/09/24 06:15:49;;;;;;;33.92;26.52;;;;;;;-142.57;100.00;68379.81;5052115;28;20029;-78
2022/09/24 06:18:14;;;;;;;36.35;27.20;;;;;;;-142.57;100.00;68379.81;5053939;28;20013;-77
2022/09/24 06:20:40;;;;;;;34.00;29.30;;;;;;;-142.57;100.00;68379.81;5023517;28;20112;-77
2022/09/24 06:23:05;;;;;;;32.55;27.60;;;;;;;-142.57;100.00;68379.81;5048333;28;20099;-77
2022/09/24 06:25:30;;;;;;;30.15;26.00;;;;;;;-142.57;100.00;68379.81;5036012;28;20021;-77
2022/09/24 06:28:01;;;;;;;36.53;26.65;;;;;;;-142.57;100.00;68379.81;5047564;28;20501;-78
2022/09/24 06:30:32;;;;;;;32.53;27.38;;;;;;;-142.57;100.00;68379.81;5046913;28;20532;-75
2022/09/24 06:33:04;;;;;;;30.50;26.10;;;;;;;-142.57;100.00;68379.81;5047111;28;20025;-77
2022/09/24 06:35:30;;;;;;;28.45;25.52;;;;;;;-142.57;100.00;68379.81;5064522;28;20025;-79
2022/09/24 06:37:56;;;;;;;35.40;26.35;;;;;;;-142.57;100.00;68379.81;5068548;28;20073;-76
2022/09/24 06:40:23;;;;;;;32.60;27.70;;;;;;;-142.57;100.00;68379.81;5059079;28;20475;-77
2022/09/24 06:42:51;;;;;;;32.60;24.88;;;;;;;-142.57;100.00;68379.81;5051900;28;20357;-76
2022/09/24 06:45:16;;;;;;;32.75;25.77;;;;;;;-142.57;100.00;68379.81;5034537;28;20151;-77
2022/09/24 06:47:42;;;;;;;33.75;28.05;;;;;;;-142.57;100.00;68379.81;5032348;28;20057;-77
2022/09/24 06:50:07;;;;;;;32.13;27.33;;;;;;;-142.57;100.00;68379.81;5048557;28;20104;-80
2022/09/24 06:52:33;;;;;;;34.15;27.00;;;;;;;-142.57;100.00;68379.81;5032395;28;20029;-78
2022/09/24 06:54:58;;;;;;;28.73;25.70;;;;;;;-142.57;100.00;68379.81;5066799;28;20651;-78
2022/09/24 06:57:24;;;;;;;29.50;25.17;;;;;;;-142.57;100.00;68379.81;5051707;28;20127;-78
2022/09/24 06:59:50;;;;;;;29.13;25.98;;;;;;;-142.57;100.00;68379.81;5064533;28;20448;-78
2022/09/24 07:02:16;;;;;;;40.13;27.73;;;;;;;-142.57;100.00;68379.81;5043269;28;20025;-78
2022/09/24 07:04:41;;;;;;;34.63;28.10;;;;;;;-142.57;100.00;68379.81;5047215;28;20070;-78
2022/09/24 07:09:50;;;;;;;33.67;26.30;;;;;;;-142.57;100.00;68379.81;5070223;28;20063;-79
2022/09/24 07:12:16;;;;;;;35.72;27.35;;;;;;;-142.57;100.00;68379.81;5031094;28;20456;-78
2022/09/24 07:14:41;;;;;;;29.65;26.23;;;;;;;-142.57;100.00;68379.81;5030758;28;20024;-79
2022/09/24 07:17:06;;;;;;;28.42;24.95;;;;;;;-142.57;100.00;68379.81;5031310;28;20021;-79
2022/09/24 07:19:32;;;;;;;33.08;24.92;;;;;;;-142.57;100.00;68379.81;5021504;28;20037;-79
2022/09/24 07:21:57;;;;;;;36.85;25.83;;;;;;;-142.57;100.00;68379.81;5036987;28;20027;-79
2022/09/24 07:24:22;;;;;;;27.77;24.52;;;;;;;-142.57;100.00;68379.81;5053910;28;20025;-79
2022/09/24 07:26:48;;;;;;;31.77;24.88;;;;;;;-142.57;100.00;68379.81;5056507;28;20472;-79
2022/09/24 07:29:13;;;;;;;32.20;25.17;;;;;;;-142.57;100.00;68379.81;5052482;28;20035;-78
2022/09/24 07:31:39;;;;;;;26.77;23.85;;;;;;;-142.57;100.00;68379.81;5034424;28;20044;-78
2022/09/24 07:34:06;;;;;;;31.77;24.92;;;;;;;-142.57;100.00;68379.81;5042644;28;20108;-78
2022/09/24 07:36:32;;;;;;;35.78;26.88;;;;;;;-142.57;100.00;68379.81;5054173;28;20082;-77
2022/09/24 07:38:57;;;;;;;28.05;23.88;;;;;;;-142.57;100.00;68379.81;5071071;28;20456;-78
2022/09/24 07:41:23;;;;;;;32.65;24.92;;;;;;;-142.57;100.00;68379.81;5070920;28;20025;-78
2022/09/24 07:43:48;;;;;;;29.50;24.13;;;;;;;-142.57;100.00;68379.81;5049828;28;20430;-77
2022/09/24 07:46:13;;;;;;;30.77;25.05;;;;;;;-142.57;100.00;68379.81;5055247;28;20032;-76
2022/09/24 07:48:39;;;;;;;28.63;24.33;;;;;;;-142.57;100.00;68379.81;5055558;28;20075;-75
2022/09/24 07:51:08;;;;;;;34.42;26.33;;;;;;;-142.57;100.00;68379.81;5067130;28;20478;-74
2022/09/24 07:53:34;;;;;;;29.02;25.77;;;;;;;-142.57;100.00;68379.81;5025920;28;20079;-75
2022/09/24 07:55:59;;;;;;;35.70;26.63;;;;;;;-142.57;100.00;68379.81;5053798;28;20025;-75
2022/09/24 07:58:25;;;;;;;37.05;26.50;;;;;;;-142.57;100.00;68379.81;5053914;28;20021;-74
2022/09/24 08:00:50;;;;;;;28.60;25.70;;;;;;;-142.57;100.00;68379.81;5054611;28;20064;-75
2022/09/24 08:03:15;;;;;;;35.22;25.42;;;;;;;-142.57;100.00;68379.81;5053905;28;20427;-74
2022/09/24 08:05:44;;;;;;;31.85;25.63;;;;;;;-142.57;100.00;68379.81;5086468;28;20035;-75
2022/09/24 08:08:09;;;;;;;29.80;25.17;;;;;;;-142.57;100.00;68379.81;5042562;28;20096;-74
2022/09/24 08:10:34;;;;;;;27.08;23.75;;;;;;;-142.57;100.00;68379.81;5053404;28;20109;-74
2022/09/24 08:13:01;;;;;;;32.05;24.60;;;;;;;-142.57;100.00;68379.81;5048487;28;20013;-74
2022/09/24 08:15:26;;;;;;;29.65;23.42;;;;;;;-142.57;100.00;68379.81;5044310;28;20020;-75
2022/09/24 08:17:52;;;;;;;31.23;23.88;;;;;;;-142.57;100.00;68379.81;5053491;28;20505;-75
2022/09/24 08:20:17;;;;;;;35.50;25.55;;;;;;;-142.57;100.00;68379.81;5062388;28;20029;-74
2022/09/24 08:22:43;;;;;;;30.25;24.85;;;;;;;-142.57;100.00;68379.81;5053814;28;20482;-74
2022/09/24 08:25:08;;;;;;;25.85;23.10;;;;;;;-142.57;100.00;68379.81;5048214;28;20073;-74
2022/09/24 08:27:35;;;;;;;25.35;22.20;;;;;;;-142.57;100.00;68379.81;5053974;28;20075;-75
2022/09/24 08:30:02;;;;;;;27.15;23.65;;;;;;;-142.57;100.00;68379.81;5064378;28;20031;-74
2022/09/24 08:32:30;;;;;;;30.83;23.17;;;;;;;-142.57;100.00;68379.81;5046568;28;20376;-74
2022/09/24 08:34:55;;;;;;;28.15;24.08;;;;;;;-142.57;100.00;68379.81;5058151;28;20047;-74
2022/09/24 08:37:21;;;;;;;29.88;25.67;;;;;;;-142.57;100.00;68379.81;5040160;28;20044;-74
2022/09/24 08:39:46;;;;;;;30.38;24.73;;;;;;;-142.57;100.00;68379.81;5055416;28;20033;-74
2022/09/24 08:42:29;;;;;;;30.90;24.73;;;;;;;-142.57;100.00;68379.81;5063018;28;20111;-76
2022/09/24 08:48:09;;;;;;;31.77;24.45;;;;;;;-142.57;100.00;68379.81;5031401;28;20030;-74
2022/09/24 08:50:38;;;;;;;32.15;23.02;;;;;;;-142.57;100.00;68379.81;5032744;28;20049;-73
2022/09/24 08:53:20;;;;;;;29.42;24.25;;;;;;;-142.57;100.00;68379.81;5083980;28;20471;-74
2022/09/24 08:55:46;;;;;;;30.60;23.65;;;;;;;-142.57;100.00;68379.81;5065746;28;20102;-74
2022/09/24 08:58:33;;;;;;;29.58;23.90;;;;;;;-142.57;100.00;68379.81;5063872;28;20424;-73
2022/09/24 09:01:11;;;;;;;28.20;24.50;;;;;;;-142.57;100.00;68379.81;5032408;28;20484;-73
2022/09/24 09:04:02;;;;;;;28.95;24.48;;;;;;;-142.57;100.00;68379.81;5056419;28;20051;-73
2022/09/24 09:06:50;;;;;;;29.27;26.10;;;;;;;-142.57;100.00;68379.81;5082129;28;20051;-73
2022/09/24 09:09:22;;;;;;;34.28;24.70;;;;;;;-142.57;100.00;68379.81;5039925;28;20048;-74
2022/09/24 09:11:56;;;;;;;29.95;24.40;;;;;;;-142.57;100.00;68379.81;5059853;28;20020;-73
2022/09/24 09:14:44;;;;;;;33.10;24.92;;;;;;;-142.57;100.00;68379.81;5057597;28;20422;-75
2022/09/24 09:17:44;;;;;;;32.83;24.10;;;;;;;-142.57;100.00;68379.81;5059625;28;20026;-74
2022/09/24 09:20:15;;;;;;;24.17;20.60;;;;;;;-142.57;100.00;68379.81;5051224;28;20060;-75
2022/09/24 09:22:45;;;;;;;30.65;22.33;;;;;;;-142.57;100.00;68379.81;5066225;28;20028;-74
2022/09/24 09:25:19;;;;;;;26.25;20.75;;;;;;;-142.57;100.00;68379.81;5065652;28;20111;-74
2022/09/24 09:27:48;;;;;;;21.00;18.35;;;;;;;-142.57;100.00;68379.81;5069067;28;20020;-74
2022/09/24 09:30:15;;;;;;;23.25;18.23;;;;;;;-142.57;100.00;68379.81;5060257;28;20140;-73
2022/09/24 09:32:56;;;;;;;20.63;18.50;;;;;;;-142.57;100.00;68379.81;5067460;28;20033;-74
2022/09/24 09:35:28;;;;;;;23.42;17.70;;;;;;;-142.57;100.00;68379.81;5047108;28;20485;-74
2022/09/24 09:38:03;;;;;;;21.27;17.95;;;;;;;-142.57;100.00;68379.81;5067759;28;20024;-74
2022/09/24 09:40:41;;;;;;;19.00;16.75;;;;;;;-142.57;100.00;68379.81;5073779;28;20549;-74
2022/09/24 09:43:08;;;;;;;20.77;17.17;;;;;;;-142.57;100.00;68379.81;5033721;28;20037;-76
2022/09/24 09:46:11;;;;;;;20.98;17.50;;;;;;;-142.57;100.00;68379.81;5034521;28;20033;-75
2022/09/24 09:48:44;;;;;;;19.90;17.88;;;;;;;-142.57;100.00;68379.81;5054815;28;20084;-76
2022/09/24 09:51:16;;;;;;;19.27;16.20;;;;;;;-142.57;100.00;68379.81;5046076;28;20111;-76
2022/09/24 09:53:53;;;;;;;19.75;17.27;;;;;;;-142.57;100.00;68379.81;5051462;28;20482;-76
2022/09/24 09:56:22;;;;;;;15.88;13.85;;;;;;;-142.57;100.00;68379.81;5068010;28;20709;-76
2022/09/24 09:58:51;;;;;;;14.90;13.00;;;;;;;-142.57;100.00;68379.81;5067820;28;20055;-76
2022/09/24 10:01:17;;;;;;;19.20;13.32;;;;;;;-142.57;100.00;68379.81;5050782;28;20025;-77
2022/09/24 10:03:42;;;;;;;12.27;10.50;;;;;;;-142.57;100.00;68379.81;5051552;28;20372;-78
2022/09/24 10:06:12;;;;;;;13.68;10.07;;;;;;;-142.57;100.00;68379.81;5047840;28;20063;-75
2022/09/24 10:08:37;;;;;;;14.15;9.55;;;;;;;-142.57;100.00;68379.81;5032445;28;20023;-79
2022/09/24 10:11:03;;;;;;;10.88;8.52;;;;;;;-142.57;100.00;68379.81;5033162;28;20033;-79
2022/09/24 10:13:32;;;;;;;16.35;10.55;;;;;;;-142.57;100.00;68379.81;5033877;28;20127;-80
2022/09/24 10:15:59;;;;;;;14.02;8.40;;;;;;;-142.57;100.00;68379.81;5050956;28;20475;-76
2022/09/24 10:18:29;;;;;;;13.23;9.02;;;;;;;-142.57;100.00;68379.81;5044431;28;20094;-78
2022/09/24 10:20:55;;;;;;;10.52;7.53;;;;;;;-142.57;100.00;68379.81;5064216;28;20028;-76
2022/09/24 10:23:25;;;;;;;8.65;7.13;;;;;;;-142.57;100.00;68379.81;5068680;28;20051;-80
2022/09/24 10:25:59;;;;;;;8.85;7.10;;;;;;;-142.57;100.00;68379.81;5053055;28;20056;-80
2022/09/24 10:31:15;;;;;;;8.90;7.22;;;;;;;-142.57;100.00;68379.81;5082832;28;19935;-80
2022/09/24 10:33:43;;;;;;;9.60;6.82;;;;;;;-142.57;100.00;68379.81;5030482;28;20025;-79
2022/09/24 10:36:26;;;;;;;10.70;7.35;;;;;;;-142.57;100.00;68379.81;5069619;28;20028;-80
2022/09/24 10:39:07;;;;;;;7.85;6.53;;;;;;;-142.57;100.00;68379.81;5050416;28;20430;-73
2022/09/24 10:41:32;;;;;;;9.63;6.82;;;;;;;-142.57;100.00;68379.81;5052184;28;20037;-79
2022/09/24 10:44:02;;;;;;;8.68;6.40;;;;;;;-142.57;100.00;68379.81;5037461;28;20355;-80
2022/09/24 10:47:03;;;;;;;7.97;6.00;;;;;;;-142.57;100.00;68379.81;5063514;28;20104;-76
2022/09/24 10:50:02;;;;;;;7.30;5.72;;;;;;;-142.57;100.00;68379.81;5054860;28;20029;-79
2022/09/24 10:52:50;;;;;;;8.90;6.28;;;;;;;-142.57;100.00;68379.81;5036336;28;20021;-79
2022/09/24 10:55:44;;;;;;;8.40;6.03;;;;;;;-142.57;100.00;68379.81;5040044;28;20036;-76
2022/09/24 10:58:38;;;;;;;9.97;7.13;;;;;;;-142.57;100.00;68379.81;5056539;28;20100;-80
2022/09/24 11:01:31;;;;;;;12.05;7.03;;;;;;;-142.57;100.00;68379.81;5055090;28;20788;-79
2022/09/24 11:04:19;;;;;;;13.27;7.32;;;;;;;-142.57;100.00;68379.81;5038081;28;20475;-79
2022/09/24 11:07:07;;;;;;;7.60;6.35;;;;;;;-142.57;100.00;68379.81;5053713;28;20355;-78
2022/09/24 11:09:50;;;;;;;11.55;7.57;;;;;;;-142.57;100.00;68379.81;5058231;28;20119;-77
2022/09/24 11:12:36;;;;;;;8.48;6.72;;;;;;;-142.57;100.00;68379.81;5081324;28;20036;-78
2022/09/24 11:15:27;;;;;;;9.60;6.82;;;;;;;-142.57;100.00;68379.81;5056725;28;20024;-80
2022/09/24 11:18:08;;;;;;;11.10;6.90;;;;;;;-142.57;100.00;68379.81;5035483;28;20028;-77
2022/09/24 11:20:38;;;;;;;9.80;7.05;;;;;;;-142.57;100.00;68379.81;5100340;28;20136;-78
2022/09/24 11:23:31;;;;;;;12.23;6.70;;;;;;;-142.57;100.00;68379.81;5044010;28;20044;-76
2022/09/24 11:26:26;;;;;;;8.18;5.95;;;;;;;-142.57;100.00;68379.81;5041714;28;20033;-78